sensor_id;sensor_type;location;lat;lon;timestamp;temperature;humidity
4509;DHT22;2267;48.816;9.230;2024-03-23T00:53:04;13.40;98.60
4509;DHT22;2267;48.816;9.230;2024-03-23T00:55:36;13.40;98.80
4509;DHT22;2267;48.816;9.230;2024-03-23T00:58:15;13.40;98.90
4509;DHT22;2267;48.816;9.230;2024-03-23T01:00:43;13.40;99.00
4509;DHT22;2267;48.816;9.230;2024-03-23T01:03:12;13.40;99.10
4509;DHT22;2267;48.816;9.230;2024-03-23T01:05:42;13.30;99.10
4509;DHT22;2267;48.816;9.230;2024-03-23T01:08:14;13.30;99.00
4509;DHT22;2267;48.816;9.230;2024-03-23T01:11:17;13.30;99.40
4509;DHT22;2267;48.816;9.230;2024-03-23T01:13:43;13.30;99.00
4509;DHT22;2267;48.816;9.230;2024-03-23T01:16:17;13.30;99.00
4509;DHT22;2267;48.816;9.230;2024-03-23T01:19:06;13.30;99.00
4509;DHT22;2267;48.816;9.230;2024-03-23T01:21:39;13.30;99.20
4509;DHT22;2267;48.816;9.230;2024-03-23T01:24:08;13.20;99.20
4509;DHT22;2267;48.816;9.230;2024-03-23T01:26:36;13.30;99.00
4509;DHT22;2267;48.816;9.230;2024-03-23T01:29:08;13.20;98.60
4509;DHT22;2267;48.816;9.230;2024-03-23T01:31:34;13.20;98.50
4509;DHT22;2267;48.816;9.230;2024-03-23T01:34:09;13.20;98.60
4509;DHT22;2267;48.816;9.230;2024-03-23T01:36:54;13.20;98.70
4509;DHT22;2267;48.816;9.230;2024-03-23T01:39:28;13.10;99.00
4509;DHT22;2267;48.816;9.230;2024-03-23T01:41:54;13.10;99.20
4509;DHT22;2267;48.816;9.230;2024-03-23T01:44:25;13.20;99.60
4509;DHT22;2267;48.816;9.230;2024-03-23T01:47:04;13.20;99.60
4509;DHT22;2267;48.816;9.230;2024-03-23T01:49:44;13.20;99.90
4509;DHT22;2267;48.816;9.230;2024-03-23T01:52:17;13.20;99.50
4509;DHT22;2267;48.816;9.230;2024-03-23T01:54:53;13.20;99.40
4509;DHT22;2267;48.816;9.230;2024-03-23T01:57:22;13.20;99.60
4509;DHT22;2267;48.816;9.230;2024-03-23T01:59:49;13.20;99.70
4509;DHT22;2267;48.816;9.230;2024-03-23T02:02:14;13.20;99.50
4509;DHT22;2267;48.816;9.230;2024-03-23T02:04:43;13.30;99.60
4509;DHT22;2267;48.816;9.230;2024-03-23T02:07:09;13.30;99.80
4509;DHT22;2267;48.816;9.230;2024-03-23T02:09:35;13.30;99.60
4509;DHT22;2267;48.816;9.230;2024-03-23T02:12:04;13.30;99.60
4509;DHT22;2267;48.816;9.230;2024-03-23T02:14:30;13.30;99.60
4509;DHT22;2267;48.816;9.230;2024-03-23T02:16:56;13.30;99.60
4509;DHT22;2267;48.816;9.230;2024-03-23T02:19:22;13.40;99.30
4509;DHT22;2267;48.816;9.230;2024-03-23T02:21:48;13.40;99.20
4509;DHT22;2267;48.816;9.230;2024-03-23T02:24:13;13.40;99.20
4509;DHT22;2267;48.816;9.230;2024-03-23T02:26:39;13.40;99.10
4509;DHT22;2267;48.816;9.230;2024-03-23T02:29:05;13.40;99.60
4509;DHT22;2267;48.816;9.230;2024-03-23T02:31:31;13.50;99.30
4509;DHT22;2267;48.816;9.230;2024-03-23T02:33:57;13.50;99.30
4509;DHT22;2267;48.816;9.230;2024-03-23T02:36:22;13.50;99.40
4509;DHT22;2267;48.816;9.230;2024-03-23T02:38:48;13.50;99.30
4509;DHT22;2267;48.816;9.230;2024-03-23T02:41:15;13.50;99.10
4509;DHT22;2267;48.816;9.230;2024-03-23T02:43:41;13.50;99.10
4509;DHT22;2267;48.816;9.230;2024-03-23T02:46:07;13.50;99.10
4509;DHT22;2267;48.816;9.230;2024-03-23T02:48:33;13.50;99.10
4509;DHT22;2267;48.816;9.230;2024-03-23T02:50:59;13.50;99.30
4509;DHT22;2267;48.816;9.230;2024-03-23T02:53:24;13.50;99.30
4509;DHT22;2267;48.816;9.230;2024-03-23T02:55:50;13.50;99.40
4509;DHT22;2267;48.816;9.230;2024-03-23T02:58:16;13.50;99.40
4509;DHT22;2267;48.816;9.230;2024-03-23T03:00:42;13.50;99.30
4509;DHT22;2267;48.816;9.230;2024-03-23T03:03:08;13.50;99.20
4509;DHT22;2267;48.816;9.230;2024-03-23T03:05:34;13.50;99.10
4509;DHT22;2267;48.816;9.230;2024-03-23T03:08:00;13.60;99.30
4509;DHT22;2267;48.816;9.230;2024-03-23T03:10:26;13.60;99.30
4509;DHT22;2267;48.816;9.230;2024-03-23T03:12:51;13.60;99.20
4509;DHT22;2267;48.816;9.230;2024-03-23T03:15:17;13.60;99.30
4509;DHT22;2267;48.816;9.230;2024-03-23T03:17:44;13.60;99.40
4509;DHT22;2267;48.816;9.230;2024-03-23T03:20:10;13.60;99.40
4509;DHT22;2267;48.816;9.230;2024-03-23T03:22:39;13.60;99.40
4509;DHT22;2267;48.816;9.230;2024-03-23T03:25:05;13.60;99.40
4509;DHT22;2267;48.816;9.230;2024-03-23T03:27:33;13.60;99.40
4509;DHT22;2267;48.816;9.230;2024-03-23T03:29:59;13.60;99.40
4509;DHT22;2267;48.816;9.230;2024-03-23T03:32:29;13.60;99.50
4509;DHT22;2267;48.816;9.230;2024-03-23T03:34:55;13.60;99.50
4509;DHT22;2267;48.816;9.230;2024-03-23T03:37:20;13.60;99.60
4509;DHT22;2267;48.816;9.230;2024-03-23T03:39:46;13.60;99.50
4509;DHT22;2267;48.816;9.230;2024-03-23T03:42:12;13.60;99.50
4509;DHT22;2267;48.816;9.230;2024-03-23T03:44:38;13.60;99.50
4509;DHT22;2267;48.816;9.230;2024-03-23T03:47:06;13.60;99.60
4509;DHT22;2267;48.816;9.230;2024-03-23T03:49:32;13.60;99.60
4509;DHT22;2267;48.816;9.230;2024-03-23T03:51:58;13.60;99.60
4509;DHT22;2267;48.816;9.230;2024-03-23T03:54:24;13.60;99.60
4509;DHT22;2267;48.816;9.230;2024-03-23T03:56:50;13.70;99.70
4509;DHT22;2267;48.816;9.230;2024-03-23T03:59:17;13.70;99.70
4509;DHT22;2267;48.816;9.230;2024-03-23T04:01:43;13.70;99.70
4509;DHT22;2267;48.816;9.230;2024-03-23T04:04:09;13.70;99.70
4509;DHT22;2267;48.816;9.230;2024-03-23T04:06:34;13.70;99.80
4509;DHT22;2267;48.816;9.230;2024-03-23T04:09:01;13.70;99.70
4509;DHT22;2267;48.816;9.230;2024-03-23T04:11:27;13.70;99.80
4509;DHT22;2267;48.816;9.230;2024-03-23T04:13:52;13.70;99.80
4509;DHT22;2267;48.816;9.230;2024-03-23T04:16:28;13.60;99.80
4509;DHT22;2267;48.816;9.230;2024-03-23T04:18:54;13.70;99.80
4509;DHT22;2267;48.816;9.230;2024-03-23T04:21:21;13.60;99.80
4509;DHT22;2267;48.816;9.230;2024-03-23T04:23:48;13.60;99.90
4509;DHT22;2267;48.816;9.230;2024-03-23T04:26:14;13.60;99.90
4509;DHT22;2267;48.816;9.230;2024-03-23T04:28:41;13.60;99.90
4509;DHT22;2267;48.816;9.230;2024-03-23T04:31:07;13.60;99.90
4509;DHT22;2267;48.816;9.230;2024-03-23T04:33:33;13.60;99.90
4509;DHT22;2267;48.816;9.230;2024-03-23T04:35:58;13.60;99.90
4509;DHT22;2267;48.816;9.230;2024-03-23T04:38:24;13.60;99.90
4509;DHT22;2267;48.816;9.230;2024-03-23T04:40:57;13.40;99.90
4509;DHT22;2267;48.816;9.230;2024-03-23T04:43:23;13.30;99.90
4509;DHT22;2267;48.816;9.230;2024-03-23T04:45:50;13.30;99.90
4509;DHT22;2267;48.816;9.230;2024-03-23T04:48:16;13.20;99.90
4509;DHT22;2267;48.816;9.230;2024-03-23T04:50:41;13.20;99.90
4509;DHT22;2267;48.816;9.230;2024-03-23T04:53:08;13.20;99.90
4509;DHT22;2267;48.816;9.230;2024-03-23T04:55:34;13.20;99.90
4509;DHT22;2267;48.816;9.230;2024-03-23T04:58:00;13.20;99.90
4509;DHT22;2267;48.816;9.230;2024-03-23T05:00:26;13.20;99.90
4509;DHT22;2267;48.816;9.230;2024-03-23T05:02:52;13.20;99.90
4509;DHT22;2267;48.816;9.230;2024-03-23T05:05:19;13.20;99.90
4509;DHT22;2267;48.816;9.230;2024-03-23T05:07:45;13.20;99.90
4509;DHT22;2267;48.816;9.230;2024-03-23T05:10:11;13.10;99.90
4509;DHT22;2267;48.816;9.230;2024-03-23T05:12:38;13.10;99.90
4509;DHT22;2267;48.816;9.230;2024-03-23T05:15:05;13.00;99.90
4509;DHT22;2267;48.816;9.230;2024-03-23T05:17:32;12.90;99.90
4509;DHT22;2267;48.816;9.230;2024-03-23T05:20:02;12.90;99.90
4509;DHT22;2267;48.816;9.230;2024-03-23T05:22:29;12.90;99.90
4509;DHT22;2267;48.816;9.230;2024-03-23T05:24:55;12.90;99.90
4509;DHT22;2267;48.816;9.230;2024-03-23T05:27:21;12.80;99.90
4509;DHT22;2267;48.816;9.230;2024-03-23T05:29:47;12.80;99.90
4509;DHT22;2267;48.816;9.230;2024-03-23T05:32:14;12.80;99.90
4509;DHT22;2267;48.816;9.230;2024-03-23T05:34:40;12.70;99.90
4509;DHT22;2267;48.816;9.230;2024-03-23T05:37:06;12.80;99.90
4509;DHT22;2267;48.816;9.230;2024-03-23T05:39:32;12.70;99.90
4509;DHT22;2267;48.816;9.230;2024-03-23T05:41:58;12.60;99.90
4509;DHT22;2267;48.816;9.230;2024-03-23T05:44:24;12.60;99.90
4509;DHT22;2267;48.816;9.230;2024-03-23T05:46:59;12.60;99.90
4509;DHT22;2267;48.816;9.230;2024-03-23T05:49:25;12.60;99.90
4509;DHT22;2267;48.816;9.230;2024-03-23T05:52:11;12.50;99.90
4509;DHT22;2267;48.816;9.230;2024-03-23T05:54:38;12.50;99.90
4509;DHT22;2267;48.816;9.230;2024-03-23T05:57:07;12.40;99.90
4509;DHT22;2267;48.816;9.230;2024-03-23T05:59:33;12.30;99.90
4509;DHT22;2267;48.816;9.230;2024-03-23T06:01:59;12.40;99.90
4509;DHT22;2267;48.816;9.230;2024-03-23T06:04:26;12.30;99.90
4509;DHT22;2267;48.816;9.230;2024-03-23T06:06:52;12.30;99.90
4509;DHT22;2267;48.816;9.230;2024-03-23T06:09:19;12.30;99.90
4509;DHT22;2267;48.816;9.230;2024-03-23T06:11:45;12.20;99.90
4509;DHT22;2267;48.816;9.230;2024-03-23T06:14:19;12.20;99.90
4509;DHT22;2267;48.816;9.230;2024-03-23T06:16:45;12.20;99.90
4509;DHT22;2267;48.816;9.230;2024-03-23T06:19:11;12.20;99.90
4509;DHT22;2267;48.816;9.230;2024-03-23T06:21:37;12.20;99.90
4509;DHT22;2267;48.816;9.230;2024-03-23T06:24:08;12.20;99.90
4509;DHT22;2267;48.816;9.230;2024-03-23T06:26:34;12.10;99.90
4509;DHT22;2267;48.816;9.230;2024-03-23T06:29:07;12.10;99.90
4509;DHT22;2267;48.816;9.230;2024-03-23T06:31:34;12.10;99.90
4509;DHT22;2267;48.816;9.230;2024-03-23T06:34:00;12.20;99.90
4509;DHT22;2267;48.816;9.230;2024-03-23T06:36:27;12.10;99.90
4509;DHT22;2267;48.816;9.230;2024-03-23T06:38:53;12.10;99.90
4509;DHT22;2267;48.816;9.230;2024-03-23T06:41:19;12.00;99.90
4509;DHT22;2267;48.816;9.230;2024-03-23T06:43:45;12.00;99.90
4509;DHT22;2267;48.816;9.230;2024-03-23T06:46:11;12.00;99.90
4509;DHT22;2267;48.816;9.230;2024-03-23T06:48:38;12.00;99.90
4509;DHT22;2267;48.816;9.230;2024-03-23T06:51:04;12.00;99.90
4509;DHT22;2267;48.816;9.230;2024-03-23T06:53:33;11.90;99.90
4509;DHT22;2267;48.816;9.230;2024-03-23T06:56:00;11.90;99.90
4509;DHT22;2267;48.816;9.230;2024-03-23T06:58:27;11.80;99.90
4509;DHT22;2267;48.816;9.230;2024-03-23T07:00:52;11.80;99.90
4509;DHT22;2267;48.816;9.230;2024-03-23T07:03:22;11.70;99.90
4509;DHT22;2267;48.816;9.230;2024-03-23T07:05:52;11.70;99.90
4509;DHT22;2267;48.816;9.230;2024-03-23T07:08:18;11.70;99.90
4509;DHT22;2267;48.816;9.230;2024-03-23T07:10:48;11.80;99.90
4509;DHT22;2267;48.816;9.230;2024-03-23T07:13:14;11.80;99.90
4509;DHT22;2267;48.816;9.230;2024-03-23T07:15:40;11.90;99.90
4509;DHT22;2267;48.816;9.230;2024-03-23T07:18:06;11.80;99.90
4509;DHT22;2267;48.816;9.230;2024-03-23T07:20:35;11.70;99.90
4509;DHT22;2267;48.816;9.230;2024-03-23T07:23:01;11.60;99.90
4509;DHT22;2267;48.816;9.230;2024-03-23T07:25:27;11.60;99.90
4509;DHT22;2267;48.816;9.230;2024-03-23T07:27:55;11.60;99.90
4509;DHT22;2267;48.816;9.230;2024-03-23T07:30:30;11.60;99.90
4509;DHT22;2267;48.816;9.230;2024-03-23T07:32:56;11.70;99.90
4509;DHT22;2267;48.816;9.230;2024-03-23T07:35:22;11.60;99.90
4509;DHT22;2267;48.816;9.230;2024-03-23T07:37:48;11.60;99.90
4509;DHT22;2267;48.816;9.230;2024-03-23T07:40:17;11.50;99.90
4509;DHT22;2267;48.816;9.230;2024-03-23T07:42:43;11.50;99.90
4509;DHT22;2267;48.816;9.230;2024-03-23T07:45:09;11.60;99.90
4509;DHT22;2267;48.816;9.230;2024-03-23T07:47:42;11.50;99.90
4509;DHT22;2267;48.816;9.230;2024-03-23T07:50:08;11.40;99.90
4509;DHT22;2267;48.816;9.230;2024-03-23T07:52:38;11.40;99.90
4509;DHT22;2267;48.816;9.230;2024-03-23T07:55:04;11.40;99.90
4509;DHT22;2267;48.816;9.230;2024-03-23T07:57:30;11.40;99.90
4509;DHT22;2267;48.816;9.230;2024-03-23T07:59:56;11.30;99.90
4509;DHT22;2267;48.816;9.230;2024-03-23T08:02:22;11.40;99.90
4509;DHT22;2267;48.816;9.230;2024-03-23T08:04:51;11.40;99.90
4509;DHT22;2267;48.816;9.230;2024-03-23T08:07:17;11.30;99.90
4509;DHT22;2267;48.816;9.230;2024-03-23T08:09:44;11.20;99.90
4509;DHT22;2267;48.816;9.230;2024-03-23T08:12:19;11.20;99.90
4509;DHT22;2267;48.816;9.230;2024-03-23T08:14:45;11.20;99.90
4509;DHT22;2267;48.816;9.230;2024-03-23T08:17:11;11.10;99.90
4509;DHT22;2267;48.816;9.230;2024-03-23T08:19:38;11.20;99.90
4509;DHT22;2267;48.816;9.230;2024-03-23T08:22:04;11.20;99.90
4509;DHT22;2267;48.816;9.230;2024-03-23T08:24:30;11.20;99.90
4509;DHT22;2267;48.816;9.230;2024-03-23T08:26:56;11.10;99.90
4509;DHT22;2267;48.816;9.230;2024-03-23T08:29:22;11.10;99.90
4509;DHT22;2267;48.816;9.230;2024-03-23T08:31:48;11.00;99.90
4509;DHT22;2267;48.816;9.230;2024-03-23T08:34:14;11.00;99.90
4509;DHT22;2267;48.816;9.230;2024-03-23T08:36:44;11.00;99.90
4509;DHT22;2267;48.816;9.230;2024-03-23T08:39:16;11.00;99.90
4509;DHT22;2267;48.816;9.230;2024-03-23T08:41:42;10.90;99.90
4509;DHT22;2267;48.816;9.230;2024-03-23T08:44:11;11.00;99.90
4509;DHT22;2267;48.816;9.230;2024-03-23T08:46:37;11.00;99.90
4509;DHT22;2267;48.816;9.230;2024-03-23T08:49:04;11.10;99.90
4509;DHT22;2267;48.816;9.230;2024-03-23T08:51:30;11.10;99.90
4509;DHT22;2267;48.816;9.230;2024-03-23T08:53:56;11.10;99.90
4509;DHT22;2267;48.816;9.230;2024-03-23T08:56:21;11.10;99.90
4509;DHT22;2267;48.816;9.230;2024-03-23T08:58:57;11.20;99.90
4509;DHT22;2267;48.816;9.230;2024-03-23T09:01:23;11.20;99.90
4509;DHT22;2267;48.816;9.230;2024-03-23T09:03:49;11.10;99.90
4509;DHT22;2267;48.816;9.230;2024-03-23T09:06:15;11.10;99.90
4509;DHT22;2267;48.816;9.230;2024-03-23T09:08:41;11.00;99.90
4509;DHT22;2267;48.816;9.230;2024-03-23T09:11:12;11.00;99.90
4509;DHT22;2267;48.816;9.230;2024-03-23T09:13:39;11.00;99.90
4509;DHT22;2267;48.816;9.230;2024-03-23T09:16:06;11.00;99.90
4509;DHT22;2267;48.816;9.230;2024-03-23T09:18:36;11.00;99.90
4509;DHT22;2267;48.816;9.230;2024-03-23T09:21:03;10.90;99.90
4509;DHT22;2267;48.816;9.230;2024-03-23T09:23:30;10.90;99.90
4509;DHT22;2267;48.816;9.230;2024-03-23T09:25:56;10.90;99.90
4509;DHT22;2267;48.816;9.230;2024-03-23T09:28:22;10.90;99.90
4509;DHT22;2267;48.816;9.230;2024-03-23T09:30:48;10.90;99.90
4509;DHT22;2267;48.816;9.230;2024-03-23T09:33:14;10.90;99.90
4509;DHT22;2267;48.816;9.230;2024-03-23T09:35:43;11.00;99.90
4509;DHT22;2267;48.816;9.230;2024-03-23T09:38:13;11.00;99.90
4509;DHT22;2267;48.816;9.230;2024-03-23T09:40:42;11.10;99.90
4509;DHT22;2267;48.816;9.230;2024-03-23T09:43:09;11.20;99.90
4509;DHT22;2267;48.816;9.230;2024-03-23T09:45:42;11.20;99.90
4509;DHT22;2267;48.816;9.230;2024-03-23T09:48:09;11.40;99.90
4509;DHT22;2267;48.816;9.230;2024-03-23T09:50:39;11.40;99.70
4509;DHT22;2267;48.816;9.230;2024-03-23T09:53:12;11.40;99.70
4509;DHT22;2267;48.816;9.230;2024-03-23T09:55:43;11.50;99.90
4509;DHT22;2267;48.816;9.230;2024-03-23T09:58:15;11.50;99.90
4509;DHT22;2267;48.816;9.230;2024-03-23T10:00:41;11.50;99.90
4509;DHT22;2267;48.816;9.230;2024-03-23T10:03:07;11.50;99.80
4509;DHT22;2267;48.816;9.230;2024-03-23T10:05:37;11.50;99.90
4509;DHT22;2267;48.816;9.230;2024-03-23T10:10:42;11.50;99.30
4509;DHT22;2267;48.816;9.230;2024-03-23T10:13:08;11.40;99.10
4509;DHT22;2267;48.816;9.230;2024-03-23T10:15:35;11.50;99.40
4509;DHT22;2267;48.816;9.230;2024-03-23T10:18:20;11.60;99.50
4509;DHT22;2267;48.816;9.230;2024-03-23T10:21:13;11.60;99.20
4509;DHT22;2267;48.816;9.230;2024-03-23T10:23:42;11.80;99.20
4509;DHT22;2267;48.816;9.230;2024-03-23T10:26:19;11.90;99.40
4509;DHT22;2267;48.816;9.230;2024-03-23T10:29:13;12.10;99.40
4509;DHT22;2267;48.816;9.230;2024-03-23T10:31:43;12.20;97.10
4509;DHT22;2267;48.816;9.230;2024-03-23T10:34:12;12.30;96.10
4509;DHT22;2267;48.816;9.230;2024-03-23T10:36:38;12.40;94.50
4509;DHT22;2267;48.816;9.230;2024-03-23T10:39:07;12.40;94.00
4509;DHT22;2267;48.816;9.230;2024-03-23T10:41:33;12.40;93.90
4509;DHT22;2267;48.816;9.230;2024-03-23T10:44:01;12.40;94.10
4509;DHT22;2267;48.816;9.230;2024-03-23T10:46:27;12.30;93.30
4509;DHT22;2267;48.816;9.230;2024-03-23T10:48:54;12.30;93.50
4509;DHT22;2267;48.816;9.230;2024-03-23T10:51:20;12.30;93.80
4509;DHT22;2267;48.816;9.230;2024-03-23T10:53:46;12.30;94.00
4509;DHT22;2267;48.816;9.230;2024-03-23T10:56:13;12.10;93.30
4509;DHT22;2267;48.816;9.230;2024-03-23T10:58:46;11.90;96.80
4509;DHT22;2267;48.816;9.230;2024-03-23T11:01:13;11.50;98.20
4509;DHT22;2267;48.816;9.230;2024-03-23T11:03:45;11.40;98.80
4509;DHT22;2267;48.816;9.230;2024-03-23T11:06:11;11.30;99.10
4509;DHT22;2267;48.816;9.230;2024-03-23T11:08:56;11.10;99.50
4509;DHT22;2267;48.816;9.230;2024-03-23T11:11:24;10.80;99.80
4509;DHT22;2267;48.816;9.230;2024-03-23T11:13:54;10.60;99.90
4509;DHT22;2267;48.816;9.230;2024-03-23T11:16:25;10.60;99.90
4509;DHT22;2267;48.816;9.230;2024-03-23T11:18:53;10.50;99.90
4509;DHT22;2267;48.816;9.230;2024-03-23T11:21:51;10.50;99.90
4509;DHT22;2267;48.816;9.230;2024-03-23T11:24:18;10.60;99.90
4509;DHT22;2267;48.816;9.230;2024-03-23T11:26:44;10.70;99.90
4509;DHT22;2267;48.816;9.230;2024-03-23T11:29:15;10.70;99.90
4509;DHT22;2267;48.816;9.230;2024-03-23T11:31:53;10.90;99.90
4509;DHT22;2267;48.816;9.230;2024-03-23T11:34:20;11.00;99.90
4509;DHT22;2267;48.816;9.230;2024-03-23T11:36:46;11.30;99.90
4509;DHT22;2267;48.816;9.230;2024-03-23T11:39:17;11.50;99.90
4509;DHT22;2267;48.816;9.230;2024-03-23T11:42:01;11.70;99.90
4509;DHT22;2267;48.816;9.230;2024-03-23T11:44:27;11.90;99.90
4509;DHT22;2267;48.816;9.230;2024-03-23T11:46:53;12.00;99.90
4509;DHT22;2267;48.816;9.230;2024-03-23T11:49:25;12.20;99.90
4509;DHT22;2267;48.816;9.230;2024-03-23T11:51:52;12.30;99.90
4509;DHT22;2267;48.816;9.230;2024-03-23T11:54:23;12.40;99.90
4509;DHT22;2267;48.816;9.230;2024-03-23T11:57:04;12.50;99.90
4509;DHT22;2267;48.816;9.230;2024-03-23T11:59:32;12.40;99.90
4509;DHT22;2267;48.816;9.230;2024-03-23T12:01:58;12.40;99.90
4509;DHT22;2267;48.816;9.230;2024-03-23T12:04:28;12.40;98.20
4509;DHT22;2267;48.816;9.230;2024-03-23T12:07:14;12.30;96.70
4509;DHT22;2267;48.816;9.230;2024-03-23T12:09:41;12.20;96.10
4509;DHT22;2267;48.816;9.230;2024-03-23T12:12:19;12.20;95.30
4509;DHT22;2267;48.816;9.230;2024-03-23T12:14:45;12.10;95.50
4509;DHT22;2267;48.816;9.230;2024-03-23T12:17:26;12.00;96.30
4509;DHT22;2267;48.816;9.230;2024-03-23T12:19:52;11.90;95.70
4509;DHT22;2267;48.816;9.230;2024-03-23T12:22:23;11.90;96.40
4509;DHT22;2267;48.816;9.230;2024-03-23T12:24:49;11.80;95.10
4509;DHT22;2267;48.816;9.230;2024-03-23T12:27:15;11.80;95.80
4509;DHT22;2267;48.816;9.230;2024-03-23T12:29:42;11.80;95.90
4509;DHT22;2267;48.816;9.230;2024-03-23T12:32:09;11.90;95.50
4509;DHT22;2267;48.816;9.230;2024-03-23T12:34:35;12.00;95.10
4509;DHT22;2267;48.816;9.230;2024-03-23T12:37:00;12.10;93.50
4509;DHT22;2267;48.816;9.230;2024-03-23T12:39:27;12.40;93.70
4509;DHT22;2267;48.816;9.230;2024-03-23T12:41:53;12.80;94.00
4509;DHT22;2267;48.816;9.230;2024-03-23T12:44:19;13.20;94.00
4509;DHT22;2267;48.816;9.230;2024-03-23T12:46:45;13.30;92.60
4509;DHT22;2267;48.816;9.230;2024-03-23T12:49:11;13.20;92.00
4509;DHT22;2267;48.816;9.230;2024-03-23T12:51:37;13.10;91.70
4509;DHT22;2267;48.816;9.230;2024-03-23T12:54:04;13.00;91.30
4509;DHT22;2267;48.816;9.230;2024-03-23T12:56:29;12.80;91.20
4509;DHT22;2267;48.816;9.230;2024-03-23T12:58:58;12.60;91.20
4509;DHT22;2267;48.816;9.230;2024-03-23T13:01:25;12.60;91.70
4509;DHT22;2267;48.816;9.230;2024-03-23T13:03:51;12.60;91.50
4509;DHT22;2267;48.816;9.230;2024-03-23T13:06:18;12.90;92.10
4509;DHT22;2267;48.816;9.230;2024-03-23T13:08:47;13.30;92.10
4509;DHT22;2267;48.816;9.230;2024-03-23T13:11:15;13.60;91.70
4509;DHT22;2267;48.816;9.230;2024-03-23T13:13:41;13.80;91.70
4509;DHT22;2267;48.816;9.230;2024-03-23T13:16:10;14.10;90.60
4509;DHT22;2267;48.816;9.230;2024-03-23T13:18:35;14.10;90.20
4509;DHT22;2267;48.816;9.230;2024-03-23T13:21:01;14.20;90.80
4509;DHT22;2267;48.816;9.230;2024-03-23T13:23:28;14.20;89.40
4509;DHT22;2267;48.816;9.230;2024-03-23T13:25:55;14.20;90.30
4509;DHT22;2267;48.816;9.230;2024-03-23T13:28:24;14.10;88.20
4509;DHT22;2267;48.816;9.230;2024-03-23T13:30:53;14.10;87.50
4509;DHT22;2267;48.816;9.230;2024-03-23T13:33:20;14.00;88.00
4509;DHT22;2267;48.816;9.230;2024-03-23T13:35:55;13.90;87.90
4509;DHT22;2267;48.816;9.230;2024-03-23T13:38:25;13.80;84.60
4509;DHT22;2267;48.816;9.230;2024-03-23T13:40:55;13.90;84.90
4509;DHT22;2267;48.816;9.230;2024-03-23T13:43:23;14.10;85.40
4509;DHT22;2267;48.816;9.230;2024-03-23T13:45:51;14.10;83.70
4509;DHT22;2267;48.816;9.230;2024-03-23T13:48:20;14.10;83.90
4509;DHT22;2267;48.816;9.230;2024-03-23T13:50:47;14.30;83.50
4509;DHT22;2267;48.816;9.230;2024-03-23T13:53:15;14.50;82.90
4509;DHT22;2267;48.816;9.230;2024-03-23T13:55:47;14.70;82.00
4509;DHT22;2267;48.816;9.230;2024-03-23T13:58:16;14.90;82.20
4509;DHT22;2267;48.816;9.230;2024-03-23T14:00:42;15.10;82.20
4509;DHT22;2267;48.816;9.230;2024-03-23T14:03:11;15.10;80.00
4509;DHT22;2267;48.816;9.230;2024-03-23T14:05:37;14.50;87.00
4509;DHT22;2267;48.816;9.230;2024-03-23T14:08:08;14.00;90.20
4509;DHT22;2267;48.816;9.230;2024-03-23T14:10:34;13.50;91.30
4509;DHT22;2267;48.816;9.230;2024-03-23T14:13:02;13.00;92.40
4509;DHT22;2267;48.816;9.230;2024-03-23T14:15:29;12.60;93.70
4509;DHT22;2267;48.816;9.230;2024-03-23T14:17:56;12.40;94.90
4509;DHT22;2267;48.816;9.230;2024-03-23T14:20:22;12.10;95.90
4509;DHT22;2267;48.816;9.230;2024-03-23T14:22:49;11.80;96.80
4509;DHT22;2267;48.816;9.230;2024-03-23T14:25:15;11.50;97.00
4509;DHT22;2267;48.816;9.230;2024-03-23T14:27:44;11.10;98.10
4509;DHT22;2267;48.816;9.230;2024-03-23T14:30:10;10.80;97.70
4509;DHT22;2267;48.816;9.230;2024-03-23T14:32:36;10.60;98.30
4509;DHT22;2267;48.816;9.230;2024-03-23T14:35:06;10.60;99.30
4509;DHT22;2267;48.816;9.230;2024-03-23T14:37:39;10.80;99.90
4509;DHT22;2267;48.816;9.230;2024-03-23T14:40:08;11.20;99.90
4509;DHT22;2267;48.816;9.230;2024-03-23T14:42:34;11.50;99.90
4509;DHT22;2267;48.816;9.230;2024-03-23T14:45:00;11.80;99.90
4509;DHT22;2267;48.816;9.230;2024-03-23T14:47:26;12.10;99.90
4509;DHT22;2267;48.816;9.230;2024-03-23T14:49:52;12.30;99.70
4509;DHT22;2267;48.816;9.230;2024-03-23T14:52:18;12.50;99.30
4509;DHT22;2267;48.816;9.230;2024-03-23T14:54:47;12.60;98.80
4509;DHT22;2267;48.816;9.230;2024-03-23T14:57:13;12.70;98.90
4509;DHT22;2267;48.816;9.230;2024-03-23T14:59:39;12.60;98.90
4509;DHT22;2267;48.816;9.230;2024-03-23T15:02:09;12.50;98.20
4509;DHT22;2267;48.816;9.230;2024-03-23T15:04:35;12.40;98.30
4509;DHT22;2267;48.816;9.230;2024-03-23T15:07:01;12.10;97.50
4509;DHT22;2267;48.816;9.230;2024-03-23T15:09:27;12.00;97.80
4509;DHT22;2267;48.816;9.230;2024-03-23T15:11:53;11.80;97.40
4509;DHT22;2267;48.816;9.230;2024-03-23T15:14:23;11.80;97.80
4509;DHT22;2267;48.816;9.230;2024-03-23T15:16:49;11.70;97.30
4509;DHT22;2267;48.816;9.230;2024-03-23T15:19:16;11.70;97.50
4509;DHT22;2267;48.816;9.230;2024-03-23T15:21:43;11.60;96.60
4509;DHT22;2267;48.816;9.230;2024-03-23T15:24:09;11.60;96.80
4509;DHT22;2267;48.816;9.230;2024-03-23T15:26:39;11.50;96.10
4509;DHT22;2267;48.816;9.230;2024-03-23T15:29:04;11.60;96.20
4509;DHT22;2267;48.816;9.230;2024-03-23T15:31:37;11.50;96.00
4509;DHT22;2267;48.816;9.230;2024-03-23T15:34:03;11.50;96.20
4509;DHT22;2267;48.816;9.230;2024-03-23T15:36:30;11.60;96.80
4509;DHT22;2267;48.816;9.230;2024-03-23T15:38:56;11.60;96.30
4509;DHT22;2267;48.816;9.230;2024-03-23T15:41:22;11.70;99.90
4509;DHT22;2267;48.816;9.230;2024-03-23T15:43:49;12.10;99.90
4509;DHT22;2267;48.816;9.230;2024-03-23T15:46:15;12.50;99.90
4509;DHT22;2267;48.816;9.230;2024-03-23T15:48:41;13.00;99.90
4509;DHT22;2267;48.816;9.230;2024-03-23T15:51:12;13.30;99.90
4509;DHT22;2267;48.816;9.230;2024-03-23T15:53:38;13.60;99.90
4509;DHT22;2267;48.816;9.230;2024-03-23T15:56:04;13.90;99.90
4509;DHT22;2267;48.816;9.230;2024-03-23T15:58:31;14.10;99.90
4509;DHT22;2267;48.816;9.230;2024-03-23T16:01:08;14.20;99.40
4509;DHT22;2267;48.816;9.230;2024-03-23T16:03:37;14.10;95.60
4509;DHT22;2267;48.816;9.230;2024-03-23T16:06:04;13.80;95.30
4509;DHT22;2267;48.816;9.230;2024-03-23T16:08:31;13.60;94.60
4509;DHT22;2267;48.816;9.230;2024-03-23T16:11:02;13.40;94.20
4509;DHT22;2267;48.816;9.230;2024-03-23T16:13:28;13.20;94.40
4509;DHT22;2267;48.816;9.230;2024-03-23T16:15:58;13.10;94.00
4509;DHT22;2267;48.816;9.230;2024-03-23T16:18:24;13.00;93.90
4509;DHT22;2267;48.816;9.230;2024-03-23T16:23:20;12.80;93.10
4509;DHT22;2267;48.816;9.230;2024-03-23T16:25:47;12.60;93.50
4509;DHT22;2267;48.816;9.230;2024-03-23T16:28:22;12.50;93.60
4509;DHT22;2267;48.816;9.230;2024-03-23T16:30:58;12.40;93.30
4509;DHT22;2267;48.816;9.230;2024-03-23T16:33:24;12.20;93.20
4509;DHT22;2267;48.816;9.230;2024-03-23T16:36:07;12.10;93.40
4509;DHT22;2267;48.816;9.230;2024-03-23T16:38:38;11.90;93.40
4509;DHT22;2267;48.816;9.230;2024-03-23T16:41:09;11.60;93.70
4509;DHT22;2267;48.816;9.230;2024-03-23T16:43:36;11.50;93.90
4509;DHT22;2267;48.816;9.230;2024-03-23T16:46:09;11.50;93.70
4509;DHT22;2267;48.816;9.230;2024-03-23T16:48:37;11.50;93.80
4509;DHT22;2267;48.816;9.230;2024-03-23T16:51:05;11.40;93.70
4509;DHT22;2267;48.816;9.230;2024-03-23T16:53:31;11.30;93.30
4509;DHT22;2267;48.816;9.230;2024-03-23T16:56:05;11.30;94.00
4509;DHT22;2267;48.816;9.230;2024-03-23T16:58:34;10.90;95.70
4509;DHT22;2267;48.816;9.230;2024-03-23T17:01:11;10.70;96.20
4509;DHT22;2267;48.816;9.230;2024-03-23T17:03:47;10.70;96.80
4509;DHT22;2267;48.816;9.230;2024-03-23T17:06:14;10.60;96.80